Time;durP1;ratioP1;P1;durP2;ratioP2;P2;SDS_P1;SDS_P2;PMS_P1;PMS_P2;Temp;Humidity;BMP_temperature;BMP_pressure;BME280_temperature;BME280_humidity;BME280_pressure;Samples;Min_cycle;Max_cycle;Signal;HPM_P1;HPM_P2
2022/11/21 04:02:18;;;;;;;0.50;0.50;;;5.40;92.20;;;;;;5306869;23;20518;-71
2022/11/21 04:04:44;;;;;;;0.50;0.50;;;5.30;92.50;;;;;;4974862;28;20454;-72
2022/11/21 04:07:11;;;;;;;0.50;0.50;;;5.30;92.50;;;;;;4974457;28;20450;-71
2022/11/21 04:09:38;;;;;;;0.50;0.50;;;5.30;92.80;;;;;;4974728;28;20451;-72
2022/11/21 04:12:05;;;;;;;0.50;0.50;;;5.30;92.40;;;;;;4974283;28;20473;-72
2022/11/21 04:14:31;;;;;;;0.50;0.50;;;5.30;92.80;;;;;;4976014;28;20454;-71
2022/11/21 04:16:58;;;;;;;0.57;0.57;;;5.40;92.80;;;;;;4975287;28;20461;-71
2022/11/21 04:19:26;;;;;;;0.50;0.50;;;5.60;92.80;;;;;;4974899;28;20450;-72
2022/11/21 04:21:53;;;;;;;0.50;0.50;;;5.70;92.10;;;;;;4974988;28;20466;-73
2022/11/21 04:24:20;;;;;;;0.50;0.50;;;5.70;91.70;;;;;;4974702;28;20449;-72
2022/11/21 04:26:46;;;;;;;0.40;0.40;;;5.70;91.80;;;;;;4974560;28;20794;-72
2022/11/21 04:29:13;;;;;;;0.50;0.50;;;5.80;91.70;;;;;;4974970;28;20450;-73
2022/11/21 04:31:40;;;;;;;0.60;0.60;;;5.90;91.90;;;;;;4974118;28;21008;-72
2022/11/21 04:34:06;;;;;;;0.50;0.50;;;5.90;91.20;;;;;;4974452;28;20512;-72
2022/11/21 04:36:34;;;;;;;0.50;0.50;;;5.70;91.70;;;;;;4974436;28;20454;-72
2022/11/21 04:39:01;;;;;;;0.50;0.50;;;5.90;91.90;;;;;;4976536;28;20450;-72
2022/11/21 04:41:28;;;;;;;1.10;0.60;;;6.00;91.30;;;;;;4977994;28;20466;-73
2022/11/21 04:43:55;;;;;;;0.50;0.50;;;5.90;91.40;;;;;;4978316;28;20453;-72
2022/11/21 04:46:21;;;;;;;0.47;0.47;;;6.00;91.80;;;;;;4978294;28;20457;-72
2022/11/21 04:48:48;;;;;;;0.50;0.50;;;6.20;91.60;;;;;;4978256;28;20457;-72
2022/11/21 04:51:15;;;;;;;0.50;0.50;;;6.10;91.00;;;;;;4978427;28;20474;-72
2022/11/21 04:53:43;;;;;;;0.50;0.50;;;6.20;91.10;;;;;;4977857;28;20989;-72
2022/11/21 04:56:09;;;;;;;0.50;0.50;;;6.30;90.70;;;;;;4978129;28;20454;-71
2022/11/21 04:58:36;;;;;;;0.50;0.50;;;6.40;90.70;;;;;;4978061;28;20454;-71
2022/11/21 05:01:07;;;;;;;0.50;0.50;;;6.40;90.60;;;;;;4977785;28;20847;-71
2022/11/21 05:03:34;;;;;;;0.50;0.50;;;6.50;90.40;;;;;;4978012;28;20474;-72
2022/11/21 05:06:01;;;;;;;0.50;0.50;;;6.60;90.10;;;;;;4977922;28;20446;-73
2022/11/21 05:08:28;;;;;;;0.50;0.50;;;6.50;89.60;;;;;;4977906;28;20526;-72
2022/11/21 05:13:40;;;;;;;0.50;0.50;;;6.60;90.00;;;;;;4977847;28;20481;-73
2022/11/21 05:16:06;;;;;;;0.50;0.50;;;6.60;90.20;;;;;;4977446;28;20458;-72
2022/11/21 05:18:33;;;;;;;0.47;0.47;;;6.60;90.10;;;;;;4978231;28;20457;-72
2022/11/21 05:21:01;;;;;;;0.50;0.50;;;6.40;89.80;;;;;;4977568;28;20469;-71
2022/11/21 05:23:28;;;;;;;0.50;0.50;;;6.40;90.30;;;;;;4977552;28;20526;-72
2022/11/21 05:25:56;;;;;;;0.53;0.50;;;6.40;90.20;;;;;;4977536;28;20450;-71
2022/11/21 05:28:23;;;;;;;0.70;0.60;;;6.40;91.90;;;;;;4977232;28;20823;-73
2022/11/21 05:30:49;;;;;;;0.50;0.50;;;6.30;91.00;;;;;;4977399;28;20474;-73
2022/11/21 05:33:16;;;;;;;0.50;0.50;;;6.40;91.20;;;;;;4977353;28;20485;-73
2022/11/21 05:35:43;;;;;;;0.50;0.50;;;6.40;90.80;;;;;;4977375;28;20446;-73
2022/11/21 05:38:09;;;;;;;0.60;0.60;;;6.30;90.40;;;;;;4977083;28;20958;-72
2022/11/21 05:40:36;;;;;;;0.50;0.50;;;6.30;90.70;;;;;;4977282;28;20450;-72
2022/11/21 05:45:49;;;;;;;0.50;0.50;;;6.10;90.70;;;;;;4977077;28;20453;-73
2022/11/21 05:48:15;;;;;;;0.50;0.50;;;6.00;91.10;;;;;;4977272;28;20457;-72
2022/11/21 05:50:42;;;;;;;0.60;0.60;;;6.00;91.60;;;;;;4976280;28;20453;-73
2022/11/21 05:53:09;;;;;;;0.50;0.50;;;6.10;92.00;;;;;;4977082;28;20514;-73
2022/11/21 05:55:35;;;;;;;0.60;0.60;;;6.20;91.60;;;;;;4977143;28;20450;-73
2022/11/21 05:58:03;;;;;;;0.50;0.50;;;6.30;91.50;;;;;;4977027;28;20453;-73
2022/11/21 06:00:31;;;;;;;0.50;0.50;;;6.20;91.20;;;;;;4976911;28;20446;-73
2022/11/21 06:05:42;;;;;;;0.70;0.70;;;6.40;90.60;;;;;;4976924;28;20413;-73
2022/11/21 06:08:09;;;;;;;0.60;0.60;;;6.30;90.70;;;;;;4976826;28;20447;-74
2022/11/21 06:10:36;;;;;;;0.50;0.50;;;6.30;91.40;;;;;;4976720;28;20450;-74
2022/11/21 06:13:20;;;;;;;0.60;0.60;;;6.30;91.30;;;;;;4976449;28;20989;-73
2022/11/21 06:15:48;;;;;;;0.50;0.50;;;6.40;91.30;;;;;;4976740;28;20533;-73
2022/11/21 06:18:14;;;;;;;0.50;0.50;;;6.30;90.50;;;;;;4976639;28;20450;-73
2022/11/21 06:20:41;;;;;;;0.50;0.50;;;6.30;91.60;;;;;;4976687;28;20508;-74
2022/11/21 06:23:08;;;;;;;0.80;0.60;;;6.30;91.10;;;;;;4976403;28;20453;-73
2022/11/21 06:25:34;;;;;;;1.07;0.50;;;6.40;90.70;;;;;;4976614;28;20458;-73
2022/11/21 06:28:01;;;;;;;0.60;0.60;;;6.20;91.20;;;;;;4976486;28;20450;-72
2022/11/21 06:30:29;;;;;;;0.50;0.50;;;6.00;91.20;;;;;;4976329;28;20477;-73
2022/11/21 06:32:56;;;;;;;0.50;0.50;;;6.10;91.50;;;;;;4976377;28;20834;-72
2022/11/21 06:35:22;;;;;;;0.50;0.50;;;6.00;91.20;;;;;;4976554;28;20455;-73
2022/11/21 06:37:49;;;;;;;0.60;0.60;;;5.90;91.40;;;;;;4976349;28;20454;-73
2022/11/21 06:40:16;;;;;;;0.60;0.60;;;6.00;91.50;;;;;;4975946;28;20950;-72
2022/11/21 06:42:43;;;;;;;0.50;0.50;;;5.80;91.50;;;;;;4976137;28;20474;-74
2022/11/21 06:45:10;;;;;;;0.60;0.60;;;5.60;92.30;;;;;;4976268;28;20457;-73
2022/11/21 06:47:38;;;;;;;0.60;0.60;;;5.70;93.00;;;;;;4976176;28;20446;-73
2022/11/21 06:50:05;;;;;;;0.80;0.80;;;5.80;92.10;;;;;;4975993;28;20966;-73
2022/11/21 06:52:33;;;;;;;0.60;0.60;;;5.80;91.50;;;;;;4976030;28;20815;-72
2022/11/21 06:55:00;;;;;;;0.70;0.70;;;5.90;91.20;;;;;;4975988;28;20517;-73
2022/11/21 06:57:26;;;;;;;1.80;0.77;;;5.90;91.10;;;;;;4976055;28;20477;-72
2022/11/21 06:59:53;;;;;;;0.70;0.70;;;5.90;90.50;;;;;;4975839;28;20813;-72
2022/11/21 07:02:20;;;;;;;0.67;0.67;;;6.00;90.50;;;;;;4975633;28;20491;-72
2022/11/21 07:04:48;;;;;;;0.60;0.60;;;6.10;90.20;;;;;;4975766;28;20500;-72
2022/11/21 07:07:15;;;;;;;0.50;0.50;;;6.10;89.60;;;;;;4975756;28;20457;-72
2022/11/21 07:09:43;;;;;;;0.60;0.60;;;6.10;89.70;;;;;;4975597;28;20455;-73
2022/11/21 07:14:54;;;;;;;0.77;0.77;;;6.40;89.10;;;;;;4975952;28;20469;-73
2022/11/21 07:17:21;;;;;;;0.50;0.50;;;6.70;90.40;;;;;;4975934;28;20450;-73
2022/11/21 07:19:49;;;;;;;0.50;0.50;;;7.60;90.00;;;;;;4976183;28;20450;-73
2022/11/21 07:22:16;;;;;;;0.53;0.53;;;8.60;86.40;;;;;;4975997;28;20473;-74
2022/11/21 07:24:42;;;;;;;0.60;0.60;;;9.60;81.20;;;;;;4976293;28;20945;-74
2022/11/21 07:27:09;;;;;;;0.60;0.60;;;9.90;76.70;;;;;;4975766;28;20450;-74
2022/11/21 07:29:36;;;;;;;0.50;0.50;;;9.70;76.00;;;;;;4975688;28;20446;-74
2022/11/21 07:32:02;;;;;;;0.60;0.60;;;9.50;76.30;;;;;;4975259;28;20477;-74
2022/11/21 07:34:29;;;;;;;0.50;0.50;;;9.60;75.80;;;;;;4975705;28;20486;-73
2022/11/21 07:36:57;;;;;;;0.70;0.70;;;9.70;76.00;;;;;;4976089;28;20451;-74
2022/11/21 07:39:24;;;;;;;0.80;0.80;;;9.70;75.30;;;;;;4975962;28;20473;-74
2022/11/21 07:41:50;;;;;;;0.70;0.70;;;9.70;75.40;;;;;;4976200;28;20466;-73
2022/11/21 07:44:17;;;;;;;0.50;0.50;;;9.60;75.70;;;;;;4976129;28;20450;-73
2022/11/21 07:46:44;;;;;;;0.60;0.60;;;9.50;76.60;;;;;;4975850;28;20454;-75
2022/11/21 07:49:10;;;;;;;0.70;0.53;;;9.90;74.30;;;;;;4975781;28;20457;-74
2022/11/21 07:51:37;;;;;;;0.60;0.60;;;10.30;74.00;;;;;;4975286;28;20478;-74
2022/11/21 07:54:06;;;;;;;0.60;0.60;;;11.60;74.10;;;;;;4974875;28;20558;-74
2022/11/21 07:56:32;;;;;;;0.60;0.60;;;13.40;69.30;;;;;;4974925;28;20458;-73
2022/11/21 07:58:59;;;;;;;0.70;0.60;;;14.30;64.30;;;;;;4975030;28;20815;-74
2022/11/21 08:01:26;;;;;;;0.50;0.50;;;14.40;62.40;;;;;;4975242;28;20478;-75
2022/11/21 08:03:53;;;;;;;0.50;0.50;;;13.20;65.60;;;;;;4975802;28;20965;-75
2022/11/21 08:06:19;;;;;;;0.53;0.53;;;13.00;65.20;;;;;;4975595;28;20454;-76
2022/11/21 08:08:47;;;;;;;0.50;0.50;;;12.00;68.60;;;;;;4975548;28;20458;-76
2022/11/21 08:11:15;;;;;;;0.60;0.60;;;12.10;68.70;;;;;;4975433;28;20471;-76
2022/11/21 08:13:41;;;;;;;0.50;0.50;;;12.00;69.00;;;;;;4974484;28;20493;-76
2022/11/21 08:16:08;;;;;;;0.60;0.60;;;11.70;70.30;;;;;;4975027;28;20453;-76
2022/11/21 08:18:35;;;;;;;0.60;0.60;;;10.90;71.60;;;;;;4975073;28;20864;-76
2022/11/21 08:21:02;;;;;;;0.63;0.60;;;10.40;74.10;;;;;;4974702;28;20481;-76
2022/11/21 08:23:29;;;;;;;0.90;0.90;;;10.20;75.70;;;;;;4974848;28;20528;-76
2022/11/21 08:25:56;;;;;;;0.50;0.50;;;10.20;76.30;;;;;;4975063;28;20450;-76
2022/11/21 08:28:24;;;;;;;0.77;0.60;;;10.00;76.20;;;;;;4975228;28;20453;-76
2022/11/21 08:30:51;;;;;;;0.53;0.53;;;9.50;76.80;;;;;;4974865;28;20481;-76
2022/11/21 08:33:18;;;;;;;0.60;0.60;;;9.00;79.10;;;;;;4974955;28;20454;-76
2022/11/21 08:35:44;;;;;;;0.50;0.50;;;8.70;80.50;;;;;;4974773;28;20450;-76
2022/11/21 08:38:11;;;;;;;0.60;0.60;;;8.30;82.20;;;;;;4974706;28;20450;-76
2022/11/21 08:40:39;;;;;;;0.60;0.60;;;8.40;83.00;;;;;;4974557;28;20834;-76
2022/11/21 08:43:08;;;;;;;0.60;0.60;;;8.00;83.10;;;;;;4975088;28;20473;-76
2022/11/21 08:45:38;;;;;;;0.50;0.50;;;8.10;85.10;;;;;;4974529;28;20451;-75
2022/11/21 08:48:09;;;;;;;0.60;0.60;;;8.00;84.30;;;;;;4974255;28;20454;-76
2022/11/21 08:50:35;;;;;;;0.87;0.87;;;7.80;84.30;;;;;;4974782;28;20438;-75
2022/11/21 08:53:03;;;;;;;0.50;0.50;;;7.80;84.70;;;;;;4974851;28;20454;-76
2022/11/21 08:55:30;;;;;;;0.50;0.50;;;7.80;85.40;;;;;;4975014;28;20486;-76
2022/11/21 08:57:57;;;;;;;0.57;0.57;;;7.80;85.90;;;;;;4974335;28;20517;-76
2022/11/21 09:00:24;;;;;;;0.60;0.60;;;7.60;86.40;;;;;;4974078;28;20453;-76
2022/11/21 09:02:52;;;;;;;0.53;0.53;;;7.40;88.00;;;;;;4974937;28;20472;-76
2022/11/21 09:05:19;;;;;;;0.60;0.60;;;7.40;88.70;;;;;;4974858;28;20458;-77
2022/11/21 09:07:45;;;;;;;0.70;0.70;;;7.40;88.50;;;;;;4974735;28;20457;-76
2022/11/21 09:10:12;;;;;;;0.67;0.60;;;7.40;88.50;;;;;;4974634;28;20457;-76
2022/11/21 09:12:39;;;;;;;0.50;0.50;;;7.50;88.20;;;;;;4974477;28;20509;-76
2022/11/21 09:18:03;;;;;;;0.50;0.50;;;7.70;87.60;;;;;;4973316;28;20505;-76
2022/11/21 09:20:32;;;;;;;0.60;0.60;;;7.70;86.40;;;;;;4973990;28;20433;-77
2022/11/21 09:23:04;;;;;;;0.60;0.60;;;7.90;87.40;;;;;;4974035;28;20449;-77
2022/11/21 09:25:30;;;;;;;0.60;0.60;;;8.00;87.20;;;;;;4975130;28;20433;-77
2022/11/21 09:27:59;;;;;;;0.60;0.60;;;8.00;86.70;;;;;;4977272;28;20446;-77
2022/11/21 09:30:26;;;;;;;0.73;0.73;;;8.10;85.50;;;;;;4977210;28;20446;-77
2022/11/21 09:32:58;;;;;;;0.53;0.53;;;8.20;85.00;;;;;;4977370;28;20441;-76
2022/11/21 09:35:25;;;;;;;0.60;0.60;;;8.30;85.20;;;;;;4977029;28;20977;-77
2022/11/21 09:37:52;;;;;;;0.60;0.60;;;8.30;82.90;;;;;;4977423;28;20465;-76
2022/11/21 09:40:19;;;;;;;1.17;0.70;;;8.20;84.00;;;;;;4976958;28;20822;-77
2022/11/21 09:42:57;;;;;;;0.50;0.50;;;8.30;83.60;;;;;;4977219;28;20545;-77
2022/11/21 09:45:29;;;;;;;0.60;0.60;;;8.20;83.90;;;;;;4977328;28;20444;-77
2022/11/21 09:47:57;;;;;;;0.60;0.60;;;8.10;84.00;;;;;;4977078;28;20937;-77
2022/11/21 09:50:29;;;;;;;0.60;0.60;;;8.20;85.30;;;;;;4977004;28;20450;-77
2022/11/21 09:53:02;;;;;;;0.60;0.60;;;8.30;85.20;;;;;;4977135;28;20466;-76
2022/11/21 09:55:37;;;;;;;0.50;0.50;;;8.30;84.00;;;;;;4977179;28;20466;-77
2022/11/21 09:58:09;;;;;;;0.70;0.70;;;8.30;83.80;;;;;;4977213;28;20445;-76
2022/11/21 10:00:36;;;;;;;0.60;0.60;;;8.30;84.60;;;;;;4976849;28;20458;-76
2022/11/21 10:03:04;;;;;;;0.60;0.60;;;8.30;84.80;;;;;;4976872;28;20457;-77
2022/11/21 10:05:38;;;;;;;0.70;0.60;;;8.30;83.10;;;;;;4976872;28;20794;-77
2022/11/21 10:08:15;;;;;;;0.60;0.60;;;8.30;82.90;;;;;;4977084;28;20907;-76
2022/11/21 10:10:51;;;;;;;0.60;0.60;;;8.30;83.70;;;;;;4977363;28;20442;-75
2022/11/21 10:13:31;;;;;;;0.80;0.60;;;8.30;81.80;;;;;;4977224;28;20438;-76
2022/11/21 10:16:03;;;;;;;0.70;0.67;;;8.40;83.20;;;;;;4978559;28;20474;-77
2022/11/21 10:19:08;;;;;;;0.50;0.50;;;8.60;82.00;;;;;;4977287;28;20439;-77
2022/11/21 10:22:05;;;;;;;0.53;0.53;;;8.80;81.30;;;;;;4935979;29;20579;-76
2022/11/21 10:24:43;;;;;;;0.60;0.60;;;8.90;81.40;;;;;;4969835;28;20844;-76
2022/11/21 10:27:15;;;;;;;0.60;0.60;;;8.90;82.20;;;;;;4977922;28;20457;-77
2022/11/21 10:29:48;;;;;;;0.60;0.60;;;9.00;82.70;;;;;;4977081;28;20528;-77
2022/11/21 10:32:21;;;;;;;0.70;0.70;;;9.10;82.90;;;;;;4977097;28;20477;-76
2022/11/21 10:34:53;;;;;;;0.67;0.67;;;9.10;81.80;;;;;;4977359;28;20477;-77
2022/11/21 10:37:31;;;;;;;0.70;0.70;;;9.10;80.40;;;;;;4976765;28;20439;-76
2022/11/21 10:40:07;;;;;;;0.60;0.60;;;9.20;80.40;;;;;;4976655;28;20434;-76
2022/11/21 10:42:38;;;;;;;0.67;0.67;;;9.50;80.40;;;;;;4976311;28;20481;-76
2022/11/21 10:45:18;;;;;;;0.70;0.70;;;10.00;81.50;;;;;;4976260;28;20906;-76
2022/11/21 10:47:46;;;;;;;0.60;0.60;;;10.40;77.00;;;;;;4976661;28;20461;-78
2022/11/21 10:50:35;;;;;;;0.67;0.67;;;10.70;77.50;;;;;;4976016;28;20450;-77
2022/11/21 10:55:59;;;;;;;0.70;0.70;;;10.70;76.30;;;;;;4974922;28;20897;-76
2022/11/21 10:58:40;;;;;;;0.70;0.70;;;10.70;74.80;;;;;;4976168;28;20437;-76
2022/11/21 11:01:17;;;;;;;0.60;0.60;;;10.70;75.70;;;;;;4975853;28;21016;-76
2022/11/21 11:03:44;;;;;;;0.70;0.70;;;10.70;74.80;;;;;;4976454;28;20427;-76
2022/11/21 11:06:12;;;;;;;0.70;0.70;;;10.90;73.50;;;;;;4976107;28;20446;-76
2022/11/21 11:08:51;;;;;;;1.87;0.70;;;10.90;75.40;;;;;;4975731;28;20961;-76
2022/11/21 11:11:24;;;;;;;0.83;0.60;;;10.80;73.30;;;;;;4975879;28;20501;-76
2022/11/21 11:13:56;;;;;;;0.60;0.60;;;10.70;72.70;;;;;;4975734;28;20445;-76
2022/11/21 11:16:24;;;;;;;0.63;0.63;;;10.50;71.20;;;;;;4975401;28;20502;-75
2022/11/21 11:18:56;;;;;;;0.70;0.67;;;10.60;72.80;;;;;;4975570;28;20457;-75
2022/11/21 11:21:26;;;;;;;0.60;0.60;;;10.60;72.90;;;;;;4975470;28;20481;-75
2022/11/21 11:23:55;;;;;;;0.50;0.50;;;10.50;72.60;;;;;;4976520;28;20505;-75
2022/11/21 11:26:27;;;;;;;0.70;0.70;;;10.50;72.40;;;;;;4975472;28;20453;-76
2022/11/21 11:29:05;;;;;;;0.60;0.60;;;10.60;72.90;;;;;;4975336;28;20864;-76
2022/11/21 11:31:40;;;;;;;0.60;0.60;;;10.60;70.80;;;;;;4975183;28;20849;-76
2022/11/21 11:34:12;;;;;;;0.70;0.70;;;10.70;72.10;;;;;;4975507;28;20542;-76
2022/11/21 11:36:52;;;;;;;0.80;0.80;;;10.80;71.40;;;;;;4975416;28;20505;-75
2022/11/21 11:39:40;;;;;;;0.60;0.60;;;10.70;73.00;;;;;;4975314;28;20445;-76
2022/11/21 11:48:09;;;;;;;0.60;0.60;;;10.50;71.70;;;;;;4975024;28;20458;-76
2022/11/21 11:50:39;;;;;;;0.60;0.60;;;10.10;71.50;;;;;;4975837;28;20537;-75
2022/11/21 11:53:11;;;;;;;0.70;0.70;;;9.90;71.70;;;;;;4975956;28;20438;-76
2022/11/21 11:55:44;;;;;;;0.70;0.70;;;10.10;73.50;;;;;;4975757;28;20470;-75
2022/11/21 11:58:19;;;;;;;0.60;0.60;;;10.30;72.60;;;;;;4975057;28;20910;-76
2022/11/21 12:00:51;;;;;;;0.63;0.63;;;10.40;72.20;;;;;;4977811;28;20481;-76
2022/11/21 12:03:23;;;;;;;0.60;0.60;;;10.50;72.10;;;;;;4983716;28;20448;-76
2022/11/21 12:06:00;;;;;;;0.70;0.70;;;11.00;72.20;;;;;;4984311;28;20433;-75
2022/11/21 12:08:38;;;;;;;0.60;0.60;;;12.50;67.20;;;;;;4981302;28;20431;-76
2022/11/21 12:14:07;;;;;;;0.60;0.60;;;14.50;60.30;;;;;;4974468;28;20894;-76
2022/11/21 12:16:35;;;;;;;0.50;0.50;;;14.30;61.00;;;;;;4974556;28;20477;-76
2022/11/21 12:19:07;;;;;;;0.60;0.60;;;13.90;60.30;;;;;;4974671;28;20445;-77
2022/11/21 12:21:34;;;;;;;0.63;0.63;;;13.40;63.20;;;;;;4974160;28;20466;-76
2022/11/21 12:24:04;;;;;;;0.60;0.60;;;12.90;63.80;;;;;;4974593;28;20453;-76
2022/11/21 12:26:53;;;;;;;0.70;0.70;;;12.50;63.60;;;;;;4974724;28;20450;-76
2022/11/21 12:29:33;;;;;;;0.80;0.80;;;12.00;65.10;;;;;;4974554;28;20459;-77
2022/11/21 12:32:19;;;;;;;0.60;0.60;;;12.00;67.10;;;;;;4974710;28;20509;-76
2022/11/21 12:35:05;;;;;;;0.90;0.70;;;11.80;66.20;;;;;;4974619;28;20470;-76
2022/11/21 12:37:40;;;;;;;0.60;0.60;;;11.90;66.40;;;;;;4974543;28;20542;-76
2022/11/21 12:40:23;;;;;;;0.63;0.63;;;12.20;66.60;;;;;;4974479;28;20442;-74
2022/11/21 12:43:01;;;;;;;0.60;0.60;;;12.20;65.90;;;;;;4974202;28;20905;-75
2022/11/21 12:45:33;;;;;;;0.60;0.60;;;12.40;67.20;;;;;;4974405;28;20446;-76
2022/11/21 12:54:57;;;;;;;0.60;0.60;;;15.90;56.40;;;;;;4933553;29;20515;-77
2022/11/21 12:57:35;;;;;;;0.60;0.60;;;16.90;54.20;;;;;;4966583;28;20457;-74
2022/11/21 13:00:09;;;;;;;0.60;0.60;;;18.60;53.30;;;;;;4976130;28;20442;-75
2022/11/21 13:02:52;;;;;;;0.60;0.60;;;20.40;47.70;;;;;;4978072;28;20485;-76
2022/11/21 13:05:26;;;;;;;0.60;0.60;;;21.30;45.50;;;;;;4978163;28;20438;-76
2022/11/21 13:07:58;;;;;;;0.70;0.70;;;21.90;43.50;;;;;;4978497;28;20437;-76
2022/11/21 13:10:26;;;;;;;0.70;0.70;;;22.70;41.60;;;;;;4978508;28;20442;-76
2022/11/21 13:13:01;;;;;;;0.70;0.60;;;20.50;43.10;;;;;;4978077;28;20462;-76
2022/11/21 13:15:34;;;;;;;0.60;0.60;;;19.20;47.00;;;;;;4978530;28;20838;-76
2022/11/21 13:18:13;;;;;;;0.70;0.70;;;19.70;47.70;;;;;;4977763;28;20457;-77
2022/11/21 13:20:47;;;;;;;0.70;0.70;;;20.30;43.20;;;;;;4977286;28;20897;-75
2022/11/21 13:23:36;;;;;;;0.80;0.80;;;19.30;46.20;;;;;;4977692;28;20438;-76
2022/11/21 13:26:37;;;;;;;0.60;0.60;;;18.70;47.30;;;;;;4977566;28;20843;-77
2022/11/21 13:29:10;;;;;;;0.60;0.60;;;19.60;46.40;;;;;;4977347;28;20449;-75
2022/11/21 13:31:37;;;;;;;0.60;0.60;;;20.80;43.20;;;;;;4977627;28;20468;-76
2022/11/21 13:34:05;;;;;;;0.60;0.60;;;22.30;41.60;;;;;;4977656;28;20465;-76
2022/11/21 13:36:37;;;;;;;0.60;0.60;;;24.60;38.90;;;;;;4978069;28;20482;-77
2022/11/21 13:39:27;;;;;;;0.50;0.50;;;26.70;35.80;;;;;;4977950;28;20473;-77
2022/11/21 13:45:42;;;;;;;0.70;0.70;;;25.40;36.70;;;;;;4977282;28;20410;-77
2022/11/21 13:48:37;;;;;;;0.70;0.70;;;22.50;40.60;;;;;;4977105;28;20805;-78
2022/11/21 13:51:38;;;;;;;0.70;0.70;;;19.80;45.40;;;;;;4977240;28;20510;-78
2022/11/21 13:54:21;;;;;;;0.60;0.60;;;17.70;48.00;;;;;;4977090;28;20435;-77
2022/11/21 13:57:04;;;;;;;0.67;0.67;;;16.30;51.50;;;;;;4977502;28;20477;-77
2022/11/21 13:59:45;;;;;;;0.80;0.80;;;15.70;53.80;;;;;;4976891;28;20434;-77
2022/11/21 14:02:35;;;;;;;0.60;0.60;;;15.00;54.30;;;;;;4976389;28;20485;-78
2022/11/21 14:05:27;;;;;;;0.70;0.70;;;14.30;56.20;;;;;;4976800;28;20778;-77
2022/11/21 14:07:54;;;;;;;0.70;0.70;;;13.90;58.40;;;;;;4976808;28;20454;-77
2022/11/21 14:10:32;;;;;;;0.60;0.60;;;13.60;59.10;;;;;;4976600;28;20453;-78
2022/11/21 14:13:01;;;;;;;0.77;0.73;;;13.30;60.00;;;;;;4976640;28;20443;-77
2022/11/21 14:15:35;;;;;;;0.80;0.80;;;12.80;60.40;;;;;;4976614;28;20540;-77
2022/11/21 14:18:03;;;;;;;0.77;0.77;;;12.40;61.90;;;;;;4976838;28;20486;-75
2022/11/21 14:20:35;;;;;;;0.77;0.77;;;12.30;62.80;;;;;;4976628;28;20454;-77
2022/11/21 14:23:04;;;;;;;0.70;0.70;;;12.10;62.50;;;;;;4977368;28;20431;-77
2022/11/21 14:25:36;;;;;;;0.60;0.60;;;11.80;63.60;;;;;;4977074;28;20443;-77
2022/11/21 14:28:06;;;;;;;0.70;0.67;;;11.50;64.20;;;;;;4976920;28;20508;-77
2022/11/21 14:30:37;;;;;;;0.60;0.60;;;11.50;65.30;;;;;;4976307;28;20810;-74
2022/11/21 14:33:30;;;;;;;0.70;0.70;;;11.40;66.40;;;;;;4976089;28;20833;-75
2022/11/21 14:36:00;;;;;;;0.80;0.80;;;11.40;66.80;;;;;;4976592;28;20910;-75
2022/11/21 14:38:29;;;;;;;0.60;0.60;;;11.30;66.90;;;;;;4976606;28;20442;-75
2022/11/21 14:41:25;;;;;;;0.70;0.70;;;11.30;67.30;;;;;;4976493;28;20470;-75
2022/11/21 14:44:16;;;;;;;0.60;0.60;;;11.30;67.90;;;;;;4976528;28;20457;-76
2022/11/21 14:46:44;;;;;;;0.80;0.80;;;11.30;67.60;;;;;;4974960;28;20478;-75
2022/11/21 14:49:24;;;;;;;0.70;0.70;;;11.20;67.50;;;;;;4976629;28;20453;-76
2022/11/21 14:51:57;;;;;;;0.80;0.70;;;11.20;67.60;;;;;;4976005;28;21009;-76
2022/11/21 14:54:27;;;;;;;0.70;0.70;;;11.10;69.00;;;;;;4976108;28;20497;-75
2022/11/21 14:56:58;;;;;;;0.63;0.63;;;10.90;70.10;;;;;;4975615;28;20978;-75
2022/11/21 14:59:26;;;;;;;1.37;0.63;;;10.70;70.00;;;;;;4975537;28;20931;-77
2022/11/21 15:02:00;;;;;;;0.70;0.70;;;10.70;70.10;;;;;;4977707;28;20486;-76
2022/11/21 15:04:34;;;;;;;0.70;0.70;;;10.70;69.40;;;;;;4976396;28;20454;-75
2022/11/21 15:07:01;;;;;;;0.70;0.70;;;10.70;69.50;;;;;;4976510;28;20490;-75
2022/11/21 15:09:30;;;;;;;0.70;0.70;;;10.70;69.70;;;;;;4976480;28;20997;-75
2022/11/21 15:12:03;;;;;;;1.20;1.17;;;10.70;69.80;;;;;;4976707;28;20996;-75
2022/11/21 15:14:36;;;;;;;0.83;0.83;;;10.70;70.00;;;;;;4976818;28;20438;-75
2022/11/21 15:17:22;;;;;;;0.90;0.90;;;10.70;70.20;;;;;;4976564;28;20473;-75
2022/11/21 15:20:04;;;;;;;1.10;1.00;;;10.50;71.20;;;;;;4976083;28;20437;-74
2022/11/21 15:22:35;;;;;;;1.13;0.80;;;10.40;71.60;;;;;;4975500;28;20576;-75
2022/11/21 15:25:07;;;;;;;0.90;0.90;;;10.30;71.60;;;;;;4976152;28;20430;-76
2022/11/21 15:27:35;;;;;;;0.80;0.80;;;10.30;72.70;;;;;;4975694;28;20453;-75
2022/11/21 15:30:04;;;;;;;0.80;0.80;;;10.40;72.80;;;;;;4976007;28;20447;-75
2022/11/21 15:32:30;;;;;;;1.00;1.00;;;10.30;72.90;;;;;;4975708;28;20474;-76
2022/11/21 15:34:58;;;;;;;0.80;0.80;;;10.20;73.20;;;;;;4975950;28;20497;-76
2022/11/21 15:37:26;;;;;;;0.73;0.73;;;10.20;73.60;;;;;;4976252;28;20489;-76
2022/11/21 15:39:53;;;;;;;0.70;0.70;;;10.10;74.00;;;;;;4975703;28;20485;-76
2022/11/21 15:42:44;;;;;;;0.70;0.70;;;10.10;73.60;;;;;;4975483;28;20888;-76
2022/11/21 15:45:26;;;;;;;0.80;0.80;;;10.00;73.40;;;;;;4965438;28;20832;-76
2022/11/21 15:47:54;;;;;;;0.67;0.67;;;9.90;73.40;;;;;;4975183;28;20446;-75
2022/11/21 15:50:25;;;;;;;0.80;0.70;;;9.90;73.90;;;;;;4975596;28;20806;-75
2022/11/21 15:52:52;;;;;;;0.60;0.60;;;9.70;74.30;;;;;;4975404;28;20438;-76
2022/11/21 15:55:22;;;;;;;0.80;0.77;;;9.70;75.00;;;;;;4975010;28;20957;-75
2022/11/21 15:57:49;;;;;;;0.70;0.70;;;9.60;75.00;;;;;;4975401;28;20440;-75
2022/11/21 16:00:17;;;;;;;0.70;0.70;;;9.60;74.70;;;;;;4974765;28;20458;-76
2022/11/21 16:02:44;;;;;;;0.90;0.90;;;9.50;75.10;;;;;;4974514;28;20482;-75
2022/11/21 16:05:12;;;;;;;0.73;0.73;;;9.40;75.20;;;;;;4975057;28;20454;-75
2022/11/21 16:07:41;;;;;;;0.80;0.80;;;9.30;75.60;;;;;;4974672;28;20805;-74
2022/11/21 16:10:08;;;;;;;0.70;0.70;;;9.20;75.80;;;;;;4975011;28;20458;-76
2022/11/21 16:12:35;;;;;;;0.70;0.70;;;9.20;75.50;;;;;;4974906;28;20497;-76
2022/11/21 16:15:02;;;;;;;0.90;0.90;;;9.10;75.70;;;;;;4976183;28;20454;-75
2022/11/21 16:17:28;;;;;;;0.83;0.83;;;9.00;76.00;;;;;;4974829;28;20490;-75
2022/11/21 16:19:55;;;;;;;0.80;0.80;;;9.00;76.10;;;;;;4974891;28;20445;-75
2022/11/21 16:22:22;;;;;;;1.23;1.00;;;8.90;75.50;;;;;;4975178;28;20469;-75
2022/11/21 16:24:50;;;;;;;1.20;1.10;;;8.80;75.70;;;;;;4974809;28;20450;-75
2022/11/21 16:27:16;;;;;;;1.10;1.10;;;8.70;75.30;;;;;;4974966;28;20472;-76
2022/11/21 16:29:43;;;;;;;1.57;1.27;;;8.50;76.20;;;;;;4974657;28;20835;-74
2022/11/21 16:32:10;;;;;;;0.90;0.90;;;8.60;76.20;;;;;;4974778;28;20481;-76
2022/11/21 16:34:37;;;;;;;1.00;1.00;;;8.60;76.30;;;;;;4976145;28;20458;-74
2022/11/21 16:37:03;;;;;;;1.37;1.27;;;8.60;76.10;;;;;;4978906;28;20486;-75
2022/11/21 16:39:30;;;;;;;0.83;0.83;;;8.70;76.20;;;;;;4978862;28;20446;-76
2022/11/21 16:41:58;;;;;;;0.80;0.80;;;8.70;75.90;;;;;;4978310;28;20477;-76
2022/11/21 16:44:29;;;;;;;0.90;0.90;;;8.50;75.90;;;;;;4978337;28;20815;-76
2022/11/21 16:46:55;;;;;;;0.90;0.90;;;8.40;76.10;;;;;;4978248;28;20426;-75
2022/11/21 16:49:23;;;;;;;1.00;0.90;;;8.30;76.10;;;;;;4977958;28;20948;-76
2022/11/21 16:51:50;;;;;;;0.80;0.80;;;8.40;75.90;;;;;;4978110;28;20474;-74
2022/11/21 16:54:16;;;;;;;1.03;1.03;;;8.30;75.50;;;;;;4978224;28;20454;-76
2022/11/21 16:56:43;;;;;;;0.70;0.70;;;7.80;76.50;;;;;;4977785;28;21004;-74
2022/11/21 16:59:11;;;;;;;0.90;0.70;;;7.30;78.00;;;;;;4978034;28;20450;-75
2022/11/21 17:01:38;;;;;;;0.77;0.77;;;7.00;78.50;;;;;;4977518;28;20986;-75
2022/11/21 17:04:05;;;;;;;0.60;0.60;;;7.10;78.70;;;;;;4977684;28;20945;-75
2022/11/21 17:06:32;;;;;;;0.80;0.80;;;7.10;78.50;;;;;;4977932;28;20454;-75
2022/11/21 17:08:59;;;;;;;0.70;0.70;;;6.90;78.50;;;;;;4977567;28;20874;-75
2022/11/21 17:11:29;;;;;;;0.80;0.80;;;6.80;78.70;;;;;;4977490;28;21056;-75
2022/11/21 17:13:58;;;;;;;0.70;0.70;;;6.70;79.10;;;;;;4977647;28;20957;-74
2022/11/21 17:16:27;;;;;;;2.07;0.83;;;6.60;79.30;;;;;;4977779;28;20508;-75
2022/11/21 17:18:54;;;;;;;0.80;0.80;;;6.60;79.60;;;;;;4977692;28;20874;-74
2022/11/21 17:21:21;;;;;;;0.90;0.90;;;6.70;79.30;;;;;;4977884;28;20477;-74
2022/11/21 17:23:48;;;;;;;0.80;0.80;;;6.60;79.80;;;;;;4977648;28;20454;-75
2022/11/21 17:26:16;;;;;;;0.70;0.70;;;6.80;79.60;;;;;;4977400;28;20453;-74
2022/11/21 17:28:43;;;;;;;0.70;0.70;;;7.00;78.80;;;;;;4977586;28;20461;-75
2022/11/21 17:31:11;;;;;;;0.73;0.73;;;7.20;78.30;;;;;;4977480;28;20474;-75
2022/11/21 17:33:39;;;;;;;0.73;0.73;;;7.40;77.90;;;;;;4977599;28;20457;-76
2022/11/21 17:36:08;;;;;;;0.90;0.90;;;7.50;77.30;;;;;;4978502;28;20563;-76
2022/11/21 17:38:34;;;;;;;0.80;0.80;;;7.40;77.40;;;;;;4977740;28;20461;-76
2022/11/21 17:41:01;;;;;;;0.90;0.90;;;7.40;77.00;;;;;;4977351;28;20469;-75
2022/11/21 17:43:28;;;;;;;0.90;0.90;;;7.30;77.50;;;;;;4977202;28;21016;-74
2022/11/21 17:45:58;;;;;;;0.70;0.70;;;7.40;78.10;;;;;;4976193;28;21024;-75
2022/11/21 17:48:25;;;;;;;0.70;0.70;;;7.50;77.50;;;;;;4977901;28;20454;-76